sensor_id;sensor_type;location;lat;lon;timestamp;temperature;humidity
29413;DHT22;16389;50.126;8.450;2022-10-31T00:03:40;10.80;99.90
29413;DHT22;16389;50.126;8.450;2022-10-31T00:06:06;10.90;99.90
29413;DHT22;16389;50.126;8.450;2022-10-31T00:08:32;11.00;99.90
29413;DHT22;16389;50.126;8.450;2022-10-31T00:10:57;11.00;99.90
29413;DHT22;16389;50.126;8.450;2022-10-31T00:13:23;11.00;99.90
29413;DHT22;16389;50.126;8.450;2022-10-31T00:15:48;11.00;99.90
29413;DHT22;16389;50.126;8.450;2022-10-31T00:18:14;11.00;99.90
29413;DHT22;16389;50.126;8.450;2022-10-31T00:20:40;11.00;99.90
29413;DHT22;16389;50.126;8.450;2022-10-31T00:23:06;11.00;99.90
29413;DHT22;16389;50.126;8.450;2022-10-31T00:25:38;10.90;99.90
29413;DHT22;16389;50.126;8.450;2022-10-31T00:28:05;10.90;99.90
29413;DHT22;16389;50.126;8.450;2022-10-31T00:30:31;10.80;99.90
29413;DHT22;16389;50.126;8.450;2022-10-31T00:32:57;10.80;99.90
29413;DHT22;16389;50.126;8.450;2022-10-31T00:35:23;10.80;99.90
29413;DHT22;16389;50.126;8.450;2022-10-31T00:37:48;10.80;99.90
29413;DHT22;16389;50.126;8.450;2022-10-31T00:40:18;10.70;99.90
29413;DHT22;16389;50.126;8.450;2022-10-31T00:42:44;10.80;99.90
29413;DHT22;16389;50.126;8.450;2022-10-31T00:45:10;10.90;99.90
29413;DHT22;16389;50.126;8.450;2022-10-31T00:47:36;10.90;99.90
29413;DHT22;16389;50.126;8.450;2022-10-31T00:50:03;11.00;99.90
29413;DHT22;16389;50.126;8.450;2022-10-31T00:52:28;11.00;99.90
29413;DHT22;16389;50.126;8.450;2022-10-31T00:54:54;11.00;99.90
29413;DHT22;16389;50.126;8.450;2022-10-31T00:57:19;11.00;99.90
29413;DHT22;16389;50.126;8.450;2022-10-31T00:59:45;11.00;99.90
29413;DHT22;16389;50.126;8.450;2022-10-31T01:02:12;11.00;99.90
29413;DHT22;16389;50.126;8.450;2022-10-31T01:04:37;11.00;99.90
29413;DHT22;16389;50.126;8.450;2022-10-31T01:07:03;11.00;99.90
29413;DHT22;16389;50.126;8.450;2022-10-31T01:09:29;10.90;99.90
29413;DHT22;16389;50.126;8.450;2022-10-31T01:11:56;10.90;99.90
29413;DHT22;16389;50.126;8.450;2022-10-31T01:14:22;10.90;99.90
29413;DHT22;16389;50.126;8.450;2022-10-31T01:16:48;10.90;99.90
29413;DHT22;16389;50.126;8.450;2022-10-31T01:19:13;10.90;99.90
29413;DHT22;16389;50.126;8.450;2022-10-31T01:21:39;10.80;99.90
29413;DHT22;16389;50.126;8.450;2022-10-31T01:24:05;10.90;99.90
29413;DHT22;16389;50.126;8.450;2022-10-31T01:26:32;10.90;99.90
29413;DHT22;16389;50.126;8.450;2022-10-31T01:29:05;10.80;99.90
29413;DHT22;16389;50.126;8.450;2022-10-31T01:31:33;10.80;99.90
29413;DHT22;16389;50.126;8.450;2022-10-31T01:33:59;10.80;99.90
29413;DHT22;16389;50.126;8.450;2022-10-31T01:36:31;10.70;99.90
29413;DHT22;16389;50.126;8.450;2022-10-31T01:39:03;10.80;99.90
29413;DHT22;16389;50.126;8.450;2022-10-31T01:41:33;10.80;99.90
29413;DHT22;16389;50.126;8.450;2022-10-31T01:44:02;10.70;99.90
29413;DHT22;16389;50.126;8.450;2022-10-31T01:46:35;10.70;99.90
29413;DHT22;16389;50.126;8.450;2022-10-31T01:49:08;10.70;99.90
29413;DHT22;16389;50.126;8.450;2022-10-31T01:51:36;10.70;99.90
29413;DHT22;16389;50.126;8.450;2022-10-31T01:54:10;10.60;99.90
29413;DHT22;16389;50.126;8.450;2022-10-31T01:56:40;10.60;99.90
29413;DHT22;16389;50.126;8.450;2022-10-31T01:59:10;10.60;99.90
29413;DHT22;16389;50.126;8.450;2022-10-31T02:01:37;10.60;99.90
29413;DHT22;16389;50.126;8.450;2022-10-31T02:04:03;10.50;99.90
29413;DHT22;16389;50.126;8.450;2022-10-31T02:06:35;10.50;99.90
29413;DHT22;16389;50.126;8.450;2022-10-31T02:09:04;10.50;99.90
29413;DHT22;16389;50.126;8.450;2022-10-31T02:11:31;10.60;99.90
29413;DHT22;16389;50.126;8.450;2022-10-31T02:13:59;10.60;99.90
29413;DHT22;16389;50.126;8.450;2022-10-31T02:16:25;10.60;99.90
29413;DHT22;16389;50.126;8.450;2022-10-31T02:18:51;10.50;99.90
29413;DHT22;16389;50.126;8.450;2022-10-31T02:21:26;10.40;99.90
29413;DHT22;16389;50.126;8.450;2022-10-31T02:24:17;10.30;99.90
29413;DHT22;16389;50.126;8.450;2022-10-31T02:27:16;10.30;99.90
29413;DHT22;16389;50.126;8.450;2022-10-31T02:32:48;10.30;99.90
29413;DHT22;16389;50.126;8.450;2022-10-31T02:38:11;10.30;99.90
29413;DHT22;16389;50.126;8.450;2022-10-31T02:41:15;10.30;99.90
29413;DHT22;16389;50.126;8.450;2022-10-31T02:43:54;10.30;99.90
29413;DHT22;16389;50.126;8.450;2022-10-31T02:46:45;10.30;99.90
29413;DHT22;16389;50.126;8.450;2022-10-31T02:49:40;10.30;99.90
29413;DHT22;16389;50.126;8.450;2022-10-31T02:52:29;10.40;99.90
29413;DHT22;16389;50.126;8.450;2022-10-31T02:54:55;10.50;99.90
29413;DHT22;16389;50.126;8.450;2022-10-31T02:57:29;10.50;99.90
29413;DHT22;16389;50.126;8.450;2022-10-31T03:00:06;10.50;99.90
29413;DHT22;16389;50.126;8.450;2022-10-31T03:10:57;10.50;99.90
29413;DHT22;16389;50.126;8.450;2022-10-31T03:14:03;10.50;99.90
29413;DHT22;16389;50.126;8.450;2022-10-31T03:16:48;10.50;99.90
29413;DHT22;16389;50.126;8.450;2022-10-31T03:19:23;10.40;99.90
29413;DHT22;16389;50.126;8.450;2022-10-31T03:22:04;10.50;99.90
29413;DHT22;16389;50.126;8.450;2022-10-31T03:24:37;10.50;99.90
29413;DHT22;16389;50.126;8.450;2022-10-31T03:27:06;10.40;99.90
29413;DHT22;16389;50.126;8.450;2022-10-31T03:29:34;10.30;99.90
29413;DHT22;16389;50.126;8.450;2022-10-31T03:34:54;10.40;99.90
29413;DHT22;16389;50.126;8.450;2022-10-31T03:37:23;10.40;99.90
29413;DHT22;16389;50.126;8.450;2022-10-31T03:39:50;10.40;99.90
29413;DHT22;16389;50.126;8.450;2022-10-31T03:42:23;10.40;99.90
29413;DHT22;16389;50.126;8.450;2022-10-31T03:45:14;10.30;99.90
29413;DHT22;16389;50.126;8.450;2022-10-31T03:47:43;10.20;99.90
29413;DHT22;16389;50.126;8.450;2022-10-31T03:50:13;10.20;99.90
29413;DHT22;16389;50.126;8.450;2022-10-31T03:55:10;10.10;99.90
29413;DHT22;16389;50.126;8.450;2022-10-31T03:57:41;10.10;99.90
29413;DHT22;16389;50.126;8.450;2022-10-31T04:00:12;10.10;99.90
29413;DHT22;16389;50.126;8.450;2022-10-31T04:02:44;10.20;99.90
29413;DHT22;16389;50.126;8.450;2022-10-31T04:05:13;10.20;99.90
29413;DHT22;16389;50.126;8.450;2022-10-31T04:07:44;10.20;99.90
29413;DHT22;16389;50.126;8.450;2022-10-31T04:10:14;10.20;99.90
29413;DHT22;16389;50.126;8.450;2022-10-31T04:12:43;10.20;99.90
29413;DHT22;16389;50.126;8.450;2022-10-31T04:15:10;10.20;99.90
29413;DHT22;16389;50.126;8.450;2022-10-31T04:17:40;10.20;99.90
29413;DHT22;16389;50.126;8.450;2022-10-31T04:20:07;10.20;99.90
29413;DHT22;16389;50.126;8.450;2022-10-31T04:22:33;10.20;99.90
29413;DHT22;16389;50.126;8.450;2022-10-31T04:24:59;10.30;99.90
29413;DHT22;16389;50.126;8.450;2022-10-31T04:27:24;10.30;99.90
29413;DHT22;16389;50.126;8.450;2022-10-31T04:29:50;10.30;99.90
29413;DHT22;16389;50.126;8.450;2022-10-31T04:32:15;10.30;99.90
29413;DHT22;16389;50.126;8.450;2022-10-31T04:34:41;10.30;99.90
29413;DHT22;16389;50.126;8.450;2022-10-31T04:37:07;10.30;99.90
29413;DHT22;16389;50.126;8.450;2022-10-31T04:39:34;10.40;99.90
29413;DHT22;16389;50.126;8.450;2022-10-31T04:41:59;10.40;99.90
29413;DHT22;16389;50.126;8.450;2022-10-31T04:44:25;10.50;99.90
29413;DHT22;16389;50.126;8.450;2022-10-31T04:46:51;10.40;99.90
29413;DHT22;16389;50.126;8.450;2022-10-31T04:49:16;10.40;99.90
29413;DHT22;16389;50.126;8.450;2022-10-31T04:51:42;10.40;99.90
29413;DHT22;16389;50.126;8.450;2022-10-31T04:54:07;10.40;99.90
29413;DHT22;16389;50.126;8.450;2022-10-31T04:56:33;10.40;99.90
29413;DHT22;16389;50.126;8.450;2022-10-31T04:58:59;10.40;99.90
29413;DHT22;16389;50.126;8.450;2022-10-31T05:01:24;10.40;99.90
29413;DHT22;16389;50.126;8.450;2022-10-31T05:03:50;10.40;99.90
29413;DHT22;16389;50.126;8.450;2022-10-31T05:06:16;10.40;99.90
29413;DHT22;16389;50.126;8.450;2022-10-31T05:08:43;10.30;99.90
29413;DHT22;16389;50.126;8.450;2022-10-31T05:11:08;10.30;99.90
29413;DHT22;16389;50.126;8.450;2022-10-31T05:13:34;10.30;99.90
29413;DHT22;16389;50.126;8.450;2022-10-31T05:16:00;10.30;99.90
29413;DHT22;16389;50.126;8.450;2022-10-31T05:18:25;10.30;99.90
29413;DHT22;16389;50.126;8.450;2022-10-31T05:20:51;10.20;99.90
29413;DHT22;16389;50.126;8.450;2022-10-31T05:23:17;10.20;99.90
29413;DHT22;16389;50.126;8.450;2022-10-31T05:25:42;10.20;99.90
29413;DHT22;16389;50.126;8.450;2022-10-31T05:28:08;10.20;99.90
29413;DHT22;16389;50.126;8.450;2022-10-31T05:30:34;10.20;99.90
29413;DHT22;16389;50.126;8.450;2022-10-31T05:33:00;10.20;99.90
29413;DHT22;16389;50.126;8.450;2022-10-31T05:35:32;10.30;99.90
29413;DHT22;16389;50.126;8.450;2022-10-31T05:37:58;10.30;99.90
29413;DHT22;16389;50.126;8.450;2022-10-31T05:40:25;10.30;99.90
29413;DHT22;16389;50.126;8.450;2022-10-31T05:42:53;10.40;99.90
29413;DHT22;16389;50.126;8.450;2022-10-31T05:45:20;10.40;99.90
29413;DHT22;16389;50.126;8.450;2022-10-31T05:48:00;10.50;99.90
29413;DHT22;16389;50.126;8.450;2022-10-31T05:50:29;10.50;99.90
29413;DHT22;16389;50.126;8.450;2022-10-31T05:53:03;10.50;99.90
29413;DHT22;16389;50.126;8.450;2022-10-31T05:55:30;10.60;99.90
29413;DHT22;16389;50.126;8.450;2022-10-31T05:57:56;10.70;99.90
29413;DHT22;16389;50.126;8.450;2022-10-31T06:00:23;10.70;99.90
29413;DHT22;16389;50.126;8.450;2022-10-31T06:02:49;10.70;99.90
29413;DHT22;16389;50.126;8.450;2022-10-31T06:05:16;10.80;99.90
29413;DHT22;16389;50.126;8.450;2022-10-31T06:07:42;10.80;99.90
29413;DHT22;16389;50.126;8.450;2022-10-31T06:10:09;10.80;99.90
29413;DHT22;16389;50.126;8.450;2022-10-31T06:12:35;10.80;99.90
29413;DHT22;16389;50.126;8.450;2022-10-31T06:15:06;10.70;99.90
29413;DHT22;16389;50.126;8.450;2022-10-31T06:17:33;10.60;99.90
29413;DHT22;16389;50.126;8.450;2022-10-31T06:20:01;10.60;99.90
29413;DHT22;16389;50.126;8.450;2022-10-31T06:22:27;10.50;99.90
29413;DHT22;16389;50.126;8.450;2022-10-31T06:24:52;10.60;99.90
29413;DHT22;16389;50.126;8.450;2022-10-31T06:27:18;10.50;99.90
29413;DHT22;16389;50.126;8.450;2022-10-31T06:29:44;10.60;99.90
29413;DHT22;16389;50.126;8.450;2022-10-31T06:32:12;10.60;99.90
29413;DHT22;16389;50.126;8.450;2022-10-31T06:34:41;10.60;99.90
29413;DHT22;16389;50.126;8.450;2022-10-31T06:37:08;10.70;99.90
29413;DHT22;16389;50.126;8.450;2022-10-31T06:39:34;10.70;99.90
29413;DHT22;16389;50.126;8.450;2022-10-31T06:42:00;10.80;99.90
29413;DHT22;16389;50.126;8.450;2022-10-31T06:44:26;10.80;99.90
29413;DHT22;16389;50.126;8.450;2022-10-31T06:46:52;11.00;99.90
29413;DHT22;16389;50.126;8.450;2022-10-31T06:49:19;11.10;99.90
29413;DHT22;16389;50.126;8.450;2022-10-31T06:51:47;11.20;99.90
29413;DHT22;16389;50.126;8.450;2022-10-31T06:54:13;11.30;99.90
29413;DHT22;16389;50.126;8.450;2022-10-31T06:56:39;11.40;99.90
29413;DHT22;16389;50.126;8.450;2022-10-31T06:59:04;11.50;99.90
29413;DHT22;16389;50.126;8.450;2022-10-31T07:01:30;11.50;99.90
29413;DHT22;16389;50.126;8.450;2022-10-31T07:03:55;11.60;99.90
29413;DHT22;16389;50.126;8.450;2022-10-31T07:06:21;11.80;99.90
29413;DHT22;16389;50.126;8.450;2022-10-31T07:08:46;11.90;99.90
29413;DHT22;16389;50.126;8.450;2022-10-31T07:11:12;12.00;99.90
29413;DHT22;16389;50.126;8.450;2022-10-31T07:13:38;12.10;99.90
29413;DHT22;16389;50.126;8.450;2022-10-31T07:16:05;12.20;99.90
29413;DHT22;16389;50.126;8.450;2022-10-31T07:18:32;12.20;99.90
29413;DHT22;16389;50.126;8.450;2022-10-31T07:20:58;12.30;99.90
29413;DHT22;16389;50.126;8.450;2022-10-31T07:23:24;12.40;99.90
29413;DHT22;16389;50.126;8.450;2022-10-31T07:25:58;12.40;99.90
29413;DHT22;16389;50.126;8.450;2022-10-31T07:28:25;12.50;99.90
29413;DHT22;16389;50.126;8.450;2022-10-31T07:30:55;12.50;99.90
29413;DHT22;16389;50.126;8.450;2022-10-31T07:33:21;12.70;99.90
29413;DHT22;16389;50.126;8.450;2022-10-31T07:35:47;12.70;99.90
29413;DHT22;16389;50.126;8.450;2022-10-31T07:38:14;12.90;99.90
29413;DHT22;16389;50.126;8.450;2022-10-31T07:40:40;13.00;99.90
29413;DHT22;16389;50.126;8.450;2022-10-31T07:43:06;13.20;99.90
29413;DHT22;16389;50.126;8.450;2022-10-31T07:45:32;13.40;99.90
29413;DHT22;16389;50.126;8.450;2022-10-31T07:47:58;13.50;99.90
29413;DHT22;16389;50.126;8.450;2022-10-31T07:50:26;13.60;99.90
29413;DHT22;16389;50.126;8.450;2022-10-31T07:53:03;13.70;99.90
29413;DHT22;16389;50.126;8.450;2022-10-31T07:55:30;13.80;99.90
29413;DHT22;16389;50.126;8.450;2022-10-31T07:58:00;13.90;99.90
29413;DHT22;16389;50.126;8.450;2022-10-31T08:00:26;14.00;99.90
29413;DHT22;16389;50.126;8.450;2022-10-31T08:03:06;14.10;99.90
29413;DHT22;16389;50.126;8.450;2022-10-31T08:05:33;14.10;99.90
29413;DHT22;16389;50.126;8.450;2022-10-31T08:07:59;14.10;99.90
29413;DHT22;16389;50.126;8.450;2022-10-31T08:10:25;14.10;99.90
29413;DHT22;16389;50.126;8.450;2022-10-31T08:13:17;14.10;99.90
29413;DHT22;16389;50.126;8.450;2022-10-31T08:15:43;14.20;99.90
29413;DHT22;16389;50.126;8.450;2022-10-31T08:18:12;14.30;99.90
29413;DHT22;16389;50.126;8.450;2022-10-31T08:20:38;14.40;99.90
29413;DHT22;16389;50.126;8.450;2022-10-31T08:23:05;14.50;99.90
29413;DHT22;16389;50.126;8.450;2022-10-31T08:25:33;14.60;99.90
29413;DHT22;16389;50.126;8.450;2022-10-31T08:27:59;14.70;99.90
29413;DHT22;16389;50.126;8.450;2022-10-31T08:30:28;14.90;99.90
29413;DHT22;16389;50.126;8.450;2022-10-31T08:33:15;15.00;99.90
29413;DHT22;16389;50.126;8.450;2022-10-31T08:35:42;15.20;99.90
29413;DHT22;16389;50.126;8.450;2022-10-31T08:38:09;15.30;99.90
29413;DHT22;16389;50.126;8.450;2022-10-31T08:40:35;15.40;99.90
29413;DHT22;16389;50.126;8.450;2022-10-31T08:43:05;15.40;99.90
29413;DHT22;16389;50.126;8.450;2022-10-31T08:45:33;15.50;99.90
29413;DHT22;16389;50.126;8.450;2022-10-31T08:48:00;15.50;99.90
29413;DHT22;16389;50.126;8.450;2022-10-31T08:50:27;15.50;99.90
29413;DHT22;16389;50.126;8.450;2022-10-31T08:52:52;15.50;99.90
29413;DHT22;16389;50.126;8.450;2022-10-31T08:55:18;15.50;99.90
29413;DHT22;16389;50.126;8.450;2022-10-31T08:57:44;15.50;99.90
29413;DHT22;16389;50.126;8.450;2022-10-31T09:00:10;15.60;99.90
29413;DHT22;16389;50.126;8.450;2022-10-31T09:02:36;15.60;99.90
29413;DHT22;16389;50.126;8.450;2022-10-31T09:05:03;15.60;99.90
29413;DHT22;16389;50.126;8.450;2022-10-31T09:07:29;15.70;99.90
29413;DHT22;16389;50.126;8.450;2022-10-31T09:09:55;15.80;99.90
29413;DHT22;16389;50.126;8.450;2022-10-31T09:12:21;15.80;99.90
29413;DHT22;16389;50.126;8.450;2022-10-31T09:14:49;15.80;99.90
29413;DHT22;16389;50.126;8.450;2022-10-31T09:17:14;15.70;99.90
29413;DHT22;16389;50.126;8.450;2022-10-31T09:19:40;15.70;99.90
29413;DHT22;16389;50.126;8.450;2022-10-31T09:22:05;15.70;99.90
29413;DHT22;16389;50.126;8.450;2022-10-31T09:24:31;15.80;99.90
29413;DHT22;16389;50.126;8.450;2022-10-31T09:26:58;15.80;99.90
29413;DHT22;16389;50.126;8.450;2022-10-31T09:29:23;15.90;99.90
29413;DHT22;16389;50.126;8.450;2022-10-31T09:31:49;15.90;99.90
29413;DHT22;16389;50.126;8.450;2022-10-31T09:34:14;16.00;99.90
29413;DHT22;16389;50.126;8.450;2022-10-31T09:36:40;16.10;99.90
29413;DHT22;16389;50.126;8.450;2022-10-31T09:39:06;16.10;99.90
29413;DHT22;16389;50.126;8.450;2022-10-31T09:52:38;16.40;99.90
29413;DHT22;16389;50.126;8.450;2022-10-31T09:55:20;16.50;99.90
29413;DHT22;16389;50.126;8.450;2022-10-31T09:57:49;16.60;99.90
29413;DHT22;16389;50.126;8.450;2022-10-31T10:00:18;16.70;99.90
29413;DHT22;16389;50.126;8.450;2022-10-31T10:08:45;16.80;99.90
29413;DHT22;16389;50.126;8.450;2022-10-31T10:25:01;17.10;99.90
29413;DHT22;16389;50.126;8.450;2022-10-31T10:30:21;17.10;99.90
29413;DHT22;16389;50.126;8.450;2022-10-31T10:32:51;17.20;99.90
29413;DHT22;16389;50.126;8.450;2022-10-31T10:35:22;17.20;99.90
29413;DHT22;16389;50.126;8.450;2022-10-31T10:37:53;17.30;99.90
29413;DHT22;16389;50.126;8.450;2022-10-31T10:40:26;17.30;99.90
29413;DHT22;16389;50.126;8.450;2022-10-31T10:45:46;17.30;99.90
29413;DHT22;16389;50.126;8.450;2022-10-31T10:49:28;17.40;99.90
29413;DHT22;16389;50.126;8.450;2022-10-31T10:59:46;17.90;99.90
29413;DHT22;16389;50.126;8.450;2022-10-31T11:02:22;18.00;99.90
29413;DHT22;16389;50.126;8.450;2022-10-31T11:04:57;18.00;99.90
29413;DHT22;16389;50.126;8.450;2022-10-31T11:07:23;18.10;99.90
29413;DHT22;16389;50.126;8.450;2022-10-31T11:09:49;18.20;99.90
29413;DHT22;16389;50.126;8.450;2022-10-31T11:12:21;18.30;99.90
29413;DHT22;16389;50.126;8.450;2022-10-31T11:14:57;18.40;99.90
29413;DHT22;16389;50.126;8.450;2022-10-31T11:17:32;18.50;99.90
29413;DHT22;16389;50.126;8.450;2022-10-31T11:22:44;18.60;99.90
29413;DHT22;16389;50.126;8.450;2022-10-31T11:27:44;18.70;99.90
29413;DHT22;16389;50.126;8.450;2022-10-31T11:30:13;18.70;99.90
29413;DHT22;16389;50.126;8.450;2022-10-31T11:32:49;18.80;99.90
29413;DHT22;16389;50.126;8.450;2022-10-31T11:35:20;18.90;99.90
29413;DHT22;16389;50.126;8.450;2022-10-31T11:37:48;18.90;99.90
29413;DHT22;16389;50.126;8.450;2022-10-31T11:40:21;19.00;99.90
29413;DHT22;16389;50.126;8.450;2022-10-31T11:42:48;19.10;99.90
29413;DHT22;16389;50.126;8.450;2022-10-31T11:47:54;19.30;99.90
29413;DHT22;16389;50.126;8.450;2022-10-31T11:50:25;19.30;99.90
29413;DHT22;16389;50.126;8.450;2022-10-31T11:52:51;19.30;99.90
29413;DHT22;16389;50.126;8.450;2022-10-31T11:55:34;19.40;99.90
29413;DHT22;16389;50.126;8.450;2022-10-31T11:58:00;19.40;99.90
29413;DHT22;16389;50.126;8.450;2022-10-31T12:00:31;19.50;99.90
29413;DHT22;16389;50.126;8.450;2022-10-31T12:06:21;19.50;99.90
29413;DHT22;16389;50.126;8.450;2022-10-31T12:08:47;19.50;99.90
29413;DHT22;16389;50.126;8.450;2022-10-31T12:11:36;19.60;99.90
29413;DHT22;16389;50.126;8.450;2022-10-31T12:14:30;19.60;99.90
29413;DHT22;16389;50.126;8.450;2022-10-31T12:17:21;19.70;99.90
29413;DHT22;16389;50.126;8.450;2022-10-31T12:25:30;19.90;99.90
29413;DHT22;16389;50.126;8.450;2022-10-31T12:31:00;19.80;99.90
29413;DHT22;16389;50.126;8.450;2022-10-31T12:36:44;19.90;99.90
29413;DHT22;16389;50.126;8.450;2022-10-31T12:42:39;20.00;99.90
29413;DHT22;16389;50.126;8.450;2022-10-31T12:48:16;20.20;99.90
29413;DHT22;16389;50.126;8.450;2022-10-31T12:51:03;20.40;99.90
29413;DHT22;16389;50.126;8.450;2022-10-31T12:54:02;20.30;99.90
29413;DHT22;16389;50.126;8.450;2022-10-31T13:05:02;20.40;99.90
29413;DHT22;16389;50.126;8.450;2022-10-31T13:07:53;20.40;99.90
29413;DHT22;16389;50.126;8.450;2022-10-31T13:10:34;20.40;99.90
29413;DHT22;16389;50.126;8.450;2022-10-31T13:13:19;20.30;99.90
29413;DHT22;16389;50.126;8.450;2022-10-31T13:15:55;20.20;99.90
29413;DHT22;16389;50.126;8.450;2022-10-31T13:18:43;20.00;99.90
29413;DHT22;16389;50.126;8.450;2022-10-31T13:21:15;19.80;99.90
29413;DHT22;16389;50.126;8.450;2022-10-31T13:23:43;19.70;99.90
29413;DHT22;16389;50.126;8.450;2022-10-31T13:26:13;19.60;99.90
29413;DHT22;16389;50.126;8.450;2022-10-31T13:31:21;19.60;99.90
29413;DHT22;16389;50.126;8.450;2022-10-31T13:33:53;19.60;99.90
29413;DHT22;16389;50.126;8.450;2022-10-31T13:39:38;19.40;99.90
29413;DHT22;16389;50.126;8.450;2022-10-31T13:44:27;19.30;99.90
29413;DHT22;16389;50.126;8.450;2022-10-31T13:46:54;19.40;99.90
29413;DHT22;16389;50.126;8.450;2022-10-31T13:51:51;19.30;99.90
29413;DHT22;16389;50.126;8.450;2022-10-31T13:54:35;19.30;99.90
29413;DHT22;16389;50.126;8.450;2022-10-31T13:57:01;19.10;99.90
29413;DHT22;16389;50.126;8.450;2022-10-31T13:59:28;19.10;99.90
29413;DHT22;16389;50.126;8.450;2022-10-31T14:01:58;19.00;99.90
29413;DHT22;16389;50.126;8.450;2022-10-31T14:04:37;18.90;99.90
29413;DHT22;16389;50.126;8.450;2022-10-31T14:07:12;18.80;99.90
29413;DHT22;16389;50.126;8.450;2022-10-31T14:10:01;18.70;99.90
29413;DHT22;16389;50.126;8.450;2022-10-31T14:12:32;18.60;99.90
29413;DHT22;16389;50.126;8.450;2022-10-31T14:15:13;18.50;99.90
29413;DHT22;16389;50.126;8.450;2022-10-31T14:17:47;18.40;99.90
29413;DHT22;16389;50.126;8.450;2022-10-31T14:22:40;18.20;99.90
29413;DHT22;16389;50.126;8.450;2022-10-31T14:25:29;18.10;99.90
29413;DHT22;16389;50.126;8.450;2022-10-31T14:27:55;18.00;99.90
29413;DHT22;16389;50.126;8.450;2022-10-31T14:30:23;18.00;99.90
29413;DHT22;16389;50.126;8.450;2022-10-31T14:32:57;17.90;99.90
29413;DHT22;16389;50.126;8.450;2022-10-31T14:35:29;18.00;99.90
29413;DHT22;16389;50.126;8.450;2022-10-31T14:38:46;17.90;99.90
29413;DHT22;16389;50.126;8.450;2022-10-31T14:46:54;17.90;99.90
29413;DHT22;16389;50.126;8.450;2022-10-31T14:52:08;18.10;99.90
29413;DHT22;16389;50.126;8.450;2022-10-31T14:54:42;18.30;99.90
29413;DHT22;16389;50.126;8.450;2022-10-31T14:57:25;18.40;99.90
29413;DHT22;16389;50.126;8.450;2022-10-31T14:59:59;18.30;99.90
29413;DHT22;16389;50.126;8.450;2022-10-31T15:02:36;18.20;99.90
29413;DHT22;16389;50.126;8.450;2022-10-31T15:05:09;18.10;99.90
29413;DHT22;16389;50.126;8.450;2022-10-31T15:07:36;17.90;99.90
29413;DHT22;16389;50.126;8.450;2022-10-31T15:10:18;17.70;99.90
29413;DHT22;16389;50.126;8.450;2022-10-31T15:12:45;17.50;99.90
29413;DHT22;16389;50.126;8.450;2022-10-31T15:15:19;17.30;99.90
29413;DHT22;16389;50.126;8.450;2022-10-31T15:17:48;17.00;99.90
29413;DHT22;16389;50.126;8.450;2022-10-31T15:20:27;16.70;99.90
29413;DHT22;16389;50.126;8.450;2022-10-31T15:22:56;16.60;99.90
29413;DHT22;16389;50.126;8.450;2022-10-31T15:25:23;16.40;99.90
29413;DHT22;16389;50.126;8.450;2022-10-31T15:27:51;16.30;99.90
29413;DHT22;16389;50.126;8.450;2022-10-31T15:30:29;16.20;99.90
29413;DHT22;16389;50.126;8.450;2022-10-31T15:32:55;16.00;99.90
29413;DHT22;16389;50.126;8.450;2022-10-31T15:35:23;15.90;99.90
29413;DHT22;16389;50.126;8.450;2022-10-31T15:37:50;15.70;99.90
29413;DHT22;16389;50.126;8.450;2022-10-31T15:40:18;15.70;99.90
29413;DHT22;16389;50.126;8.450;2022-10-31T15:42:54;15.70;99.90
29413;DHT22;16389;50.126;8.450;2022-10-31T15:45:25;15.60;99.90
29413;DHT22;16389;50.126;8.450;2022-10-31T15:50:31;15.50;99.90
29413;DHT22;16389;50.126;8.450;2022-10-31T15:52:57;15.40;99.90
29413;DHT22;16389;50.126;8.450;2022-10-31T15:55:29;15.40;99.90
29413;DHT22;16389;50.126;8.450;2022-10-31T15:57:57;15.30;99.90
29413;DHT22;16389;50.126;8.450;2022-10-31T16:00:33;15.20;99.90
29413;DHT22;16389;50.126;8.450;2022-10-31T16:05:51;15.10;99.90
29413;DHT22;16389;50.126;8.450;2022-10-31T16:11:16;15.10;99.90
29413;DHT22;16389;50.126;8.450;2022-10-31T16:14:27;15.00;99.90
29413;DHT22;16389;50.126;8.450;2022-10-31T16:16:49;15.00;99.90
29413;DHT22;16389;50.126;8.450;2022-10-31T16:21:43;14.80;99.90
29413;DHT22;16389;50.126;8.450;2022-10-31T16:24:26;14.80;99.90
29413;DHT22;16389;50.126;8.450;2022-10-31T16:26:55;14.70;99.90
29413;DHT22;16389;50.126;8.450;2022-10-31T16:31:54;14.60;99.90
29413;DHT22;16389;50.126;8.450;2022-10-31T16:34:23;14.60;99.90
29413;DHT22;16389;50.126;8.450;2022-10-31T16:36:49;14.50;99.90
29413;DHT22;16389;50.126;8.450;2022-10-31T16:39:15;14.50;99.90
29413;DHT22;16389;50.126;8.450;2022-10-31T16:41:44;14.60;99.90
29413;DHT22;16389;50.126;8.450;2022-10-31T16:44:23;14.60;99.90
29413;DHT22;16389;50.126;8.450;2022-10-31T16:47:16;14.50;99.90
29413;DHT22;16389;50.126;8.450;2022-10-31T16:49:43;14.40;99.90
29413;DHT22;16389;50.126;8.450;2022-10-31T16:52:11;14.40;99.90
29413;DHT22;16389;50.126;8.450;2022-10-31T16:54:37;14.40;99.90
29413;DHT22;16389;50.126;8.450;2022-10-31T16:57:03;14.40;99.90
29413;DHT22;16389;50.126;8.450;2022-10-31T16:59:30;14.30;99.90
29413;DHT22;16389;50.126;8.450;2022-10-31T17:01:57;14.30;99.90
29413;DHT22;16389;50.126;8.450;2022-10-31T17:04:23;14.30;99.90
29413;DHT22;16389;50.126;8.450;2022-10-31T17:06:49;14.30;99.90
29413;DHT22;16389;50.126;8.450;2022-10-31T17:09:15;14.30;99.90
29413;DHT22;16389;50.126;8.450;2022-10-31T17:11:45;14.30;99.90
29413;DHT22;16389;50.126;8.450;2022-10-31T17:14:11;14.30;99.90
29413;DHT22;16389;50.126;8.450;2022-10-31T17:16:37;14.30;99.90
29413;DHT22;16389;50.126;8.450;2022-10-31T17:19:03;14.20;99.90
29413;DHT22;16389;50.126;8.450;2022-10-31T17:21:29;14.20;99.90
29413;DHT22;16389;50.126;8.450;2022-10-31T17:23:55;14.20;99.90
29413;DHT22;16389;50.126;8.450;2022-10-31T17:26:21;14.20;99.90
29413;DHT22;16389;50.126;8.450;2022-10-31T17:28:47;14.20;99.90
29413;DHT22;16389;50.126;8.450;2022-10-31T17:31:34;14.10;99.90
29413;DHT22;16389;50.126;8.450;2022-10-31T17:34:01;14.00;99.90
29413;DHT22;16389;50.126;8.450;2022-10-31T17:36:30;14.10;99.90
29413;DHT22;16389;50.126;8.450;2022-10-31T17:38:56;14.10;99.90
29413;DHT22;16389;50.126;8.450;2022-10-31T17:41:21;14.00;99.90
29413;DHT22;16389;50.126;8.450;2022-10-31T17:43:47;14.00;99.90
29413;DHT22;16389;50.126;8.450;2022-10-31T17:46:13;13.80;99.90
29413;DHT22;16389;50.126;8.450;2022-10-31T17:48:39;13.80;99.90
29413;DHT22;16389;50.126;8.450;2022-10-31T17:51:05;13.70;99.90
29413;DHT22;16389;50.126;8.450;2022-10-31T17:53:32;13.60;99.90
29413;DHT22;16389;50.126;8.450;2022-10-31T17:56:17;13.60;99.90
29413;DHT22;16389;50.126;8.450;2022-10-31T17:58:42;13.60;99.90
29413;DHT22;16389;50.126;8.450;2022-10-31T18:01:14;13.60;99.90
29413;DHT22;16389;50.126;8.450;2022-10-31T18:03:40;13.50;99.90
29413;DHT22;16389;50.126;8.450;2022-10-31T18:06:07;13.40;99.90
29413;DHT22;16389;50.126;8.450;2022-10-31T18:08:36;13.40;99.90